sensor_id;sensor_type;location;lat;lon;timestamp;P1;durP1;ratioP1;P2;durP2;ratioP2
52043;SDS011;38053;53.100;6.078;2023-02-15T00:00:31;240.85;;;40.38;;
52043;SDS011;38053;53.100;6.078;2023-02-15T00:02:57;143.27;;;35.67;;
52043;SDS011;38053;53.100;6.078;2023-02-15T00:05:23;116.97;;;34.08;;
52043;SDS011;38053;53.100;6.078;2023-02-15T00:07:48;161.57;;;35.22;;
52043;SDS011;38053;53.100;6.078;2023-02-15T00:10:15;76.25;;;31.80;;
52043;SDS011;38053;53.100;6.078;2023-02-15T00:12:42;55.00;;;33.17;;
52043;SDS011;38053;53.100;6.078;2023-02-15T00:15:08;49.40;;;30.67;;
52043;SDS011;38053;53.100;6.078;2023-02-15T00:17:33;47.38;;;30.30;;
52043;SDS011;38053;53.100;6.078;2023-02-15T00:19:59;43.60;;;28.25;;
52043;SDS011;38053;53.100;6.078;2023-02-15T00:22:25;43.85;;;30.08;;
52043;SDS011;38053;53.100;6.078;2023-02-15T00:24:51;40.80;;;28.08;;
52043;SDS011;38053;53.100;6.078;2023-02-15T00:27:17;44.63;;;28.05;;
52043;SDS011;38053;53.100;6.078;2023-02-15T00:29:42;38.67;;;26.65;;
52043;SDS011;38053;53.100;6.078;2023-02-15T00:32:08;37.63;;;25.92;;
52043;SDS011;38053;53.100;6.078;2023-02-15T00:34:34;37.28;;;26.85;;
52043;SDS011;38053;53.100;6.078;2023-02-15T00:37:00;37.30;;;24.83;;
52043;SDS011;38053;53.100;6.078;2023-02-15T00:39:25;38.05;;;26.63;;
52043;SDS011;38053;53.100;6.078;2023-02-15T00:41:52;35.65;;;25.55;;
52043;SDS011;38053;53.100;6.078;2023-02-15T00:44:17;39.03;;;27.75;;
52043;SDS011;38053;53.100;6.078;2023-02-15T00:46:44;37.95;;;27.92;;
52043;SDS011;38053;53.100;6.078;2023-02-15T00:49:13;39.03;;;25.15;;
52043;SDS011;38053;53.100;6.078;2023-02-15T00:51:38;40.65;;;27.30;;
52043;SDS011;38053;53.100;6.078;2023-02-15T00:54:04;37.65;;;25.77;;
52043;SDS011;38053;53.100;6.078;2023-02-15T00:56:30;40.97;;;27.13;;
52043;SDS011;38053;53.100;6.078;2023-02-15T00:58:56;34.13;;;24.60;;
52043;SDS011;38053;53.100;6.078;2023-02-15T01:01:22;40.72;;;26.02;;
52043;SDS011;38053;53.100;6.078;2023-02-15T01:03:48;36.03;;;26.73;;
52043;SDS011;38053;53.100;6.078;2023-02-15T01:06:16;40.67;;;28.67;;
52043;SDS011;38053;53.100;6.078;2023-02-15T01:08:42;40.38;;;28.30;;
52043;SDS011;38053;53.100;6.078;2023-02-15T01:11:14;38.80;;;28.55;;
52043;SDS011;38053;53.100;6.078;2023-02-15T01:13:47;41.58;;;27.80;;
52043;SDS011;38053;53.100;6.078;2023-02-15T01:16:17;48.40;;;31.13;;
52043;SDS011;38053;53.100;6.078;2023-02-15T01:18:44;44.97;;;29.85;;
52043;SDS011;38053;53.100;6.078;2023-02-15T01:21:14;46.53;;;30.98;;
52043;SDS011;38053;53.100;6.078;2023-02-15T01:23:42;41.97;;;29.88;;
52043;SDS011;38053;53.100;6.078;2023-02-15T01:26:08;44.75;;;28.58;;
52043;SDS011;38053;53.100;6.078;2023-02-15T01:28:34;47.78;;;31.48;;
52043;SDS011;38053;53.100;6.078;2023-02-15T01:31:04;56.60;;;33.63;;
52043;SDS011;38053;53.100;6.078;2023-02-15T01:33:35;61.35;;;34.10;;
52043;SDS011;38053;53.100;6.078;2023-02-15T01:36:02;46.65;;;31.25;;
52043;SDS011;38053;53.100;6.078;2023-02-15T01:38:31;46.25;;;29.02;;
52043;SDS011;38053;53.100;6.078;2023-02-15T01:40:58;45.17;;;30.80;;
52043;SDS011;38053;53.100;6.078;2023-02-15T01:43:45;42.67;;;29.13;;
52043;SDS011;38053;53.100;6.078;2023-02-15T01:46:13;46.60;;;29.35;;
52043;SDS011;38053;53.100;6.078;2023-02-15T01:48:43;52.10;;;32.25;;
52043;SDS011;38053;53.100;6.078;2023-02-15T01:51:12;49.17;;;29.92;;
52043;SDS011;38053;53.100;6.078;2023-02-15T01:53:43;54.60;;;30.08;;
52043;SDS011;38053;53.100;6.078;2023-02-15T01:58:43;44.60;;;30.85;;
52043;SDS011;38053;53.100;6.078;2023-02-15T02:01:10;46.78;;;30.73;;
52043;SDS011;38053;53.100;6.078;2023-02-15T02:06:14;50.30;;;32.05;;
52043;SDS011;38053;53.100;6.078;2023-02-15T02:08:41;51.13;;;30.13;;
52043;SDS011;38053;53.100;6.078;2023-02-15T02:11:11;47.70;;;29.65;;
52043;SDS011;38053;53.100;6.078;2023-02-15T02:13:40;48.40;;;31.13;;
52043;SDS011;38053;53.100;6.078;2023-02-15T02:16:10;46.70;;;28.83;;
52043;SDS011;38053;53.100;6.078;2023-02-15T02:27:39;53.40;;;31.03;;
52043;SDS011;38053;53.100;6.078;2023-02-15T02:30:20;45.38;;;29.45;;
52043;SDS011;38053;53.100;6.078;2023-02-15T02:33:18;54.00;;;32.08;;
52043;SDS011;38053;53.100;6.078;2023-02-15T02:36:31;57.08;;;32.38;;
52043;SDS011;38053;53.100;6.078;2023-02-15T02:44:42;57.60;;;33.47;;
52043;SDS011;38053;53.100;6.078;2023-02-15T02:49:52;53.92;;;34.17;;
52043;SDS011;38053;53.100;6.078;2023-02-15T02:55:13;54.85;;;35.00;;
52043;SDS011;38053;53.100;6.078;2023-02-15T02:57:52;60.95;;;33.85;;
52043;SDS011;38053;53.100;6.078;2023-02-15T03:00:35;61.92;;;35.63;;
52043;SDS011;38053;53.100;6.078;2023-02-15T03:03:10;62.88;;;36.67;;
52043;SDS011;38053;53.100;6.078;2023-02-15T03:05:41;62.83;;;38.28;;
52043;SDS011;38053;53.100;6.078;2023-02-15T03:08:09;65.13;;;37.40;;
52043;SDS011;38053;53.100;6.078;2023-02-15T03:10:37;71.88;;;38.28;;
52043;SDS011;38053;53.100;6.078;2023-02-15T03:13:05;61.97;;;36.00;;
52043;SDS011;38053;53.100;6.078;2023-02-15T03:15:35;66.00;;;35.55;;
52043;SDS011;38053;53.100;6.078;2023-02-15T03:18:28;52.72;;;32.70;;
52043;SDS011;38053;53.100;6.078;2023-02-15T03:20:58;64.90;;;37.05;;
52043;SDS011;38053;53.100;6.078;2023-02-15T03:23:26;65.55;;;38.80;;
52043;SDS011;38053;53.100;6.078;2023-02-15T03:25:59;66.03;;;35.60;;
52043;SDS011;38053;53.100;6.078;2023-02-15T03:28:35;66.03;;;34.92;;
52043;SDS011;38053;53.100;6.078;2023-02-15T03:31:06;68.53;;;34.35;;
52043;SDS011;38053;53.100;6.078;2023-02-15T03:33:34;64.03;;;37.45;;
52043;SDS011;38053;53.100;6.078;2023-02-15T03:39:04;77.47;;;35.97;;
52043;SDS011;38053;53.100;6.078;2023-02-15T03:44:51;104.45;;;40.85;;
52043;SDS011;38053;53.100;6.078;2023-02-15T03:47:50;259.80;;;50.95;;
52043;SDS011;38053;53.100;6.078;2023-02-15T03:50:18;107.63;;;44.20;;
52043;SDS011;38053;53.100;6.078;2023-02-15T03:53:09;82.53;;;40.45;;
52043;SDS011;38053;53.100;6.078;2023-02-15T03:55:39;142.13;;;47.00;;
52043;SDS011;38053;53.100;6.078;2023-02-15T03:58:05;93.30;;;40.30;;
52043;SDS011;38053;53.100;6.078;2023-02-15T04:00:54;133.32;;;45.55;;
52043;SDS011;38053;53.100;6.078;2023-02-15T04:03:49;86.20;;;43.55;;
52043;SDS011;38053;53.100;6.078;2023-02-15T04:06:20;77.82;;;41.35;;
52043;SDS011;38053;53.100;6.078;2023-02-15T04:08:45;71.03;;;41.78;;
52043;SDS011;38053;53.100;6.078;2023-02-15T04:11:32;69.72;;;38.65;;
52043;SDS011;38053;53.100;6.078;2023-02-15T04:13:58;70.15;;;38.97;;
52043;SDS011;38053;53.100;6.078;2023-02-15T04:16:44;68.57;;;39.58;;
52043;SDS011;38053;53.100;6.078;2023-02-15T04:19:09;63.70;;;38.22;;
52043;SDS011;38053;53.100;6.078;2023-02-15T04:21:54;60.22;;;35.05;;
52043;SDS011;38053;53.100;6.078;2023-02-15T04:24:37;52.05;;;34.47;;
52043;SDS011;38053;53.100;6.078;2023-02-15T04:27:21;55.00;;;34.38;;
52043;SDS011;38053;53.100;6.078;2023-02-15T04:29:47;62.42;;;36.20;;
52043;SDS011;38053;53.100;6.078;2023-02-15T04:32:17;54.55;;;34.30;;
52043;SDS011;38053;53.100;6.078;2023-02-15T04:34:43;67.07;;;37.53;;
52043;SDS011;38053;53.100;6.078;2023-02-15T04:37:09;55.88;;;32.47;;
52043;SDS011;38053;53.100;6.078;2023-02-15T04:39:35;52.78;;;32.33;;
52043;SDS011;38053;53.100;6.078;2023-02-15T04:42:01;50.10;;;33.55;;
52043;SDS011;38053;53.100;6.078;2023-02-15T04:44:30;54.00;;;34.08;;
52043;SDS011;38053;53.100;6.078;2023-02-15T04:46:55;51.25;;;32.92;;
52043;SDS011;38053;53.100;6.078;2023-02-15T04:49:21;50.78;;;31.35;;
52043;SDS011;38053;53.100;6.078;2023-02-15T04:51:47;54.53;;;35.20;;
52043;SDS011;38053;53.100;6.078;2023-02-15T04:54:13;55.40;;;34.88;;
52043;SDS011;38053;53.100;6.078;2023-02-15T04:56:38;51.55;;;34.15;;
52043;SDS011;38053;53.100;6.078;2023-02-15T04:59:04;51.10;;;31.10;;
52043;SDS011;38053;53.100;6.078;2023-02-15T05:01:30;57.60;;;33.55;;
52043;SDS011;38053;53.100;6.078;2023-02-15T05:03:56;54.42;;;33.92;;
52043;SDS011;38053;53.100;6.078;2023-02-15T05:06:22;55.78;;;34.95;;
52043;SDS011;38053;53.100;6.078;2023-02-15T05:08:48;52.83;;;33.65;;
52043;SDS011;38053;53.100;6.078;2023-02-15T05:11:14;62.95;;;38.33;;
52043;SDS011;38053;53.100;6.078;2023-02-15T05:13:40;53.92;;;33.30;;
52043;SDS011;38053;53.100;6.078;2023-02-15T05:16:14;54.05;;;33.30;;
52043;SDS011;38053;53.100;6.078;2023-02-15T05:18:39;58.47;;;37.60;;
52043;SDS011;38053;53.100;6.078;2023-02-15T05:21:05;63.92;;;36.33;;
52043;SDS011;38053;53.100;6.078;2023-02-15T05:23:32;73.60;;;42.38;;
52043;SDS011;38053;53.100;6.078;2023-02-15T05:26:00;72.93;;;41.35;;
52043;SDS011;38053;53.100;6.078;2023-02-15T05:28:45;66.45;;;38.90;;
52043;SDS011;38053;53.100;6.078;2023-02-15T05:31:15;78.55;;;41.33;;
52043;SDS011;38053;53.100;6.078;2023-02-15T05:33:46;65.13;;;40.45;;
52043;SDS011;38053;53.100;6.078;2023-02-15T05:36:12;75.65;;;41.15;;
52043;SDS011;38053;53.100;6.078;2023-02-15T05:38:38;74.18;;;38.25;;
52043;SDS011;38053;53.100;6.078;2023-02-15T05:41:08;71.75;;;41.42;;
52043;SDS011;38053;53.100;6.078;2023-02-15T05:43:38;63.95;;;39.50;;
52043;SDS011;38053;53.100;6.078;2023-02-15T05:46:05;68.75;;;39.35;;
52043;SDS011;38053;53.100;6.078;2023-02-15T05:48:31;64.30;;;38.60;;
52043;SDS011;38053;53.100;6.078;2023-02-15T05:50:58;68.93;;;39.60;;
52043;SDS011;38053;53.100;6.078;2023-02-15T05:53:26;69.47;;;40.17;;
52043;SDS011;38053;53.100;6.078;2023-02-15T05:55:53;69.13;;;41.13;;
52043;SDS011;38053;53.100;6.078;2023-02-15T05:58:23;70.60;;;42.10;;
52043;SDS011;38053;53.100;6.078;2023-02-15T06:00:53;75.50;;;41.88;;
52043;SDS011;38053;53.100;6.078;2023-02-15T06:03:21;73.05;;;40.53;;
52043;SDS011;38053;53.100;6.078;2023-02-15T06:05:48;82.85;;;44.47;;
52043;SDS011;38053;53.100;6.078;2023-02-15T06:08:13;75.13;;;43.00;;
52043;SDS011;38053;53.100;6.078;2023-02-15T06:10:40;75.60;;;42.38;;
52043;SDS011;38053;53.100;6.078;2023-02-15T06:13:07;78.40;;;44.42;;
52043;SDS011;38053;53.100;6.078;2023-02-15T06:15:33;86.47;;;45.22;;
52043;SDS011;38053;53.100;6.078;2023-02-15T06:18:00;86.82;;;45.63;;
52043;SDS011;38053;53.100;6.078;2023-02-15T06:20:27;102.40;;;51.92;;
52043;SDS011;38053;53.100;6.078;2023-02-15T06:22:53;106.20;;;52.78;;
52043;SDS011;38053;53.100;6.078;2023-02-15T06:25:19;109.90;;;53.20;;
52043;SDS011;38053;53.100;6.078;2023-02-15T06:27:46;101.07;;;50.05;;
52043;SDS011;38053;53.100;6.078;2023-02-15T06:30:15;107.35;;;54.25;;
52043;SDS011;38053;53.100;6.078;2023-02-15T06:32:40;111.70;;;55.08;;
52043;SDS011;38053;53.100;6.078;2023-02-15T06:35:06;112.88;;;54.35;;
52043;SDS011;38053;53.100;6.078;2023-02-15T06:37:32;114.22;;;56.85;;
52043;SDS011;38053;53.100;6.078;2023-02-15T06:40:02;105.57;;;54.08;;
52043;SDS011;38053;53.100;6.078;2023-02-15T06:42:29;111.13;;;53.65;;
52043;SDS011;38053;53.100;6.078;2023-02-15T06:44:55;111.43;;;54.17;;
52043;SDS011;38053;53.100;6.078;2023-02-15T06:47:20;116.60;;;56.88;;
52043;SDS011;38053;53.100;6.078;2023-02-15T06:49:46;124.75;;;57.17;;
52043;SDS011;38053;53.100;6.078;2023-02-15T06:52:12;130.48;;;56.65;;
52043;SDS011;38053;53.100;6.078;2023-02-15T06:54:37;112.75;;;55.13;;
52043;SDS011;38053;53.100;6.078;2023-02-15T06:57:04;111.30;;;53.70;;
52043;SDS011;38053;53.100;6.078;2023-02-15T06:59:30;107.53;;;53.83;;
52043;SDS011;38053;53.100;6.078;2023-02-15T07:01:56;122.03;;;55.92;;
52043;SDS011;38053;53.100;6.078;2023-02-15T07:04:22;120.15;;;57.75;;
52043;SDS011;38053;53.100;6.078;2023-02-15T07:06:48;122.90;;;54.15;;
52043;SDS011;38053;53.100;6.078;2023-02-15T07:09:14;108.97;;;55.92;;
52043;SDS011;38053;53.100;6.078;2023-02-15T07:11:40;112.22;;;54.28;;
52043;SDS011;38053;53.100;6.078;2023-02-15T07:14:23;101.97;;;50.25;;
52043;SDS011;38053;53.100;6.078;2023-02-15T07:16:49;113.38;;;57.60;;
52043;SDS011;38053;53.100;6.078;2023-02-15T07:19:19;120.95;;;56.40;;
52043;SDS011;38053;53.100;6.078;2023-02-15T07:21:44;110.57;;;54.55;;
52043;SDS011;38053;53.100;6.078;2023-02-15T07:24:10;128.18;;;57.90;;
52043;SDS011;38053;53.100;6.078;2023-02-15T07:26:37;124.00;;;58.25;;
52043;SDS011;38053;53.100;6.078;2023-02-15T07:29:02;115.53;;;56.60;;
52043;SDS011;38053;53.100;6.078;2023-02-15T07:31:28;131.38;;;59.72;;
52043;SDS011;38053;53.100;6.078;2023-02-15T07:33:54;123.47;;;59.30;;
52043;SDS011;38053;53.100;6.078;2023-02-15T07:36:20;127.18;;;59.40;;
52043;SDS011;38053;53.100;6.078;2023-02-15T07:38:46;122.93;;;56.90;;
52043;SDS011;38053;53.100;6.078;2023-02-15T07:41:13;135.18;;;59.10;;
52043;SDS011;38053;53.100;6.078;2023-02-15T07:43:42;113.60;;;54.17;;
52043;SDS011;38053;53.100;6.078;2023-02-15T07:46:12;125.45;;;58.75;;
52043;SDS011;38053;53.100;6.078;2023-02-15T07:48:41;126.55;;;55.75;;
52043;SDS011;38053;53.100;6.078;2023-02-15T07:51:09;128.18;;;58.35;;
52043;SDS011;38053;53.100;6.078;2023-02-15T07:53:37;122.32;;;55.55;;
52043;SDS011;38053;53.100;6.078;2023-02-15T07:56:05;126.97;;;58.42;;
52043;SDS011;38053;53.100;6.078;2023-02-15T08:01:27;119.55;;;54.28;;
52043;SDS011;38053;53.100;6.078;2023-02-15T08:03:56;118.68;;;53.75;;
52043;SDS011;38053;53.100;6.078;2023-02-15T08:06:25;120.72;;;54.83;;
52043;SDS011;38053;53.100;6.078;2023-02-15T08:08:53;114.90;;;53.60;;
52043;SDS011;38053;53.100;6.078;2023-02-15T08:11:26;119.47;;;56.30;;
52043;SDS011;38053;53.100;6.078;2023-02-15T08:19:04;121.97;;;55.35;;
52043;SDS011;38053;53.100;6.078;2023-02-15T08:21:32;119.97;;;56.17;;
52043;SDS011;38053;53.100;6.078;2023-02-15T08:24:03;110.57;;;53.90;;
52043;SDS011;38053;53.100;6.078;2023-02-15T08:26:30;120.60;;;54.95;;
52043;SDS011;38053;53.100;6.078;2023-02-15T08:28:57;115.00;;;56.80;;
52043;SDS011;38053;53.100;6.078;2023-02-15T08:31:24;124.40;;;53.88;;
52043;SDS011;38053;53.100;6.078;2023-02-15T08:33:51;142.57;;;59.30;;
52043;SDS011;38053;53.100;6.078;2023-02-15T08:36:18;115.60;;;55.00;;
52043;SDS011;38053;53.100;6.078;2023-02-15T08:38:46;122.07;;;56.83;;
52043;SDS011;38053;53.100;6.078;2023-02-15T08:43:49;114.07;;;56.15;;
52043;SDS011;38053;53.100;6.078;2023-02-15T08:46:19;138.30;;;60.33;;
52043;SDS011;38053;53.100;6.078;2023-02-15T08:48:46;121.80;;;55.90;;
52043;SDS011;38053;53.100;6.078;2023-02-15T08:51:20;131.27;;;56.90;;
52043;SDS011;38053;53.100;6.078;2023-02-15T08:53:49;122.35;;;54.22;;
52043;SDS011;38053;53.100;6.078;2023-02-15T08:56:16;114.45;;;53.80;;
52043;SDS011;38053;53.100;6.078;2023-02-15T08:58:44;120.25;;;57.13;;
52043;SDS011;38053;53.100;6.078;2023-02-15T09:01:14;119.72;;;54.95;;
52043;SDS011;38053;53.100;6.078;2023-02-15T09:03:46;116.13;;;56.08;;
52043;SDS011;38053;53.100;6.078;2023-02-15T09:06:14;126.70;;;57.47;;
52043;SDS011;38053;53.100;6.078;2023-02-15T09:08:43;122.78;;;56.03;;
52043;SDS011;38053;53.100;6.078;2023-02-15T09:11:13;124.43;;;57.47;;
52043;SDS011;38053;53.100;6.078;2023-02-15T09:13:51;132.30;;;59.28;;
52043;SDS011;38053;53.100;6.078;2023-02-15T09:16:29;119.25;;;57.03;;
52043;SDS011;38053;53.100;6.078;2023-02-15T09:18:58;128.40;;;58.20;;
52043;SDS011;38053;53.100;6.078;2023-02-15T09:21:30;121.72;;;58.10;;
52043;SDS011;38053;53.100;6.078;2023-02-15T09:23:59;117.95;;;60.83;;
52043;SDS011;38053;53.100;6.078;2023-02-15T09:26:27;122.60;;;60.58;;
52043;SDS011;38053;53.100;6.078;2023-02-15T09:28:56;121.82;;;59.25;;
52043;SDS011;38053;53.100;6.078;2023-02-15T09:31:25;133.65;;;61.80;;
52043;SDS011;38053;53.100;6.078;2023-02-15T09:33:52;126.93;;;60.05;;
52043;SDS011;38053;53.100;6.078;2023-02-15T09:36:26;124.82;;;59.65;;
52043;SDS011;38053;53.100;6.078;2023-02-15T09:38:57;117.90;;;58.05;;
52043;SDS011;38053;53.100;6.078;2023-02-15T09:44:22;115.47;;;56.45;;
52043;SDS011;38053;53.100;6.078;2023-02-15T09:50:19;118.18;;;57.47;;
52043;SDS011;38053;53.100;6.078;2023-02-15T09:58:29;97.20;;;54.85;;
52043;SDS011;38053;53.100;6.078;2023-02-15T10:01:15;89.05;;;49.92;;
52043;SDS011;38053;53.100;6.078;2023-02-15T10:06:51;86.07;;;49.38;;
52043;SDS011;38053;53.100;6.078;2023-02-15T10:10:21;84.18;;;46.60;;
52043;SDS011;38053;53.100;6.078;2023-02-15T10:12:50;75.68;;;48.72;;
52043;SDS011;38053;53.100;6.078;2023-02-15T10:28:26;84.45;;;44.17;;
52043;SDS011;38053;53.100;6.078;2023-02-15T10:37:15;72.10;;;43.25;;
52043;SDS011;38053;53.100;6.078;2023-02-15T10:51:03;73.68;;;41.78;;
52043;SDS011;38053;53.100;6.078;2023-02-15T10:53:57;71.68;;;39.95;;
52043;SDS011;38053;53.100;6.078;2023-02-15T10:59:45;70.60;;;41.10;;
52043;SDS011;38053;53.100;6.078;2023-02-15T11:07:44;70.05;;;40.00;;
52043;SDS011;38053;53.100;6.078;2023-02-15T11:12:44;69.18;;;37.88;;
52043;SDS011;38053;53.100;6.078;2023-02-15T11:15:18;64.32;;;36.13;;
52043;SDS011;38053;53.100;6.078;2023-02-15T11:18:11;63.75;;;37.08;;
52043;SDS011;38053;53.100;6.078;2023-02-15T11:23:35;65.70;;;37.92;;
52043;SDS011;38053;53.100;6.078;2023-02-15T11:26:09;60.75;;;35.58;;
52043;SDS011;38053;53.100;6.078;2023-02-15T11:31:47;55.50;;;36.03;;
52043;SDS011;38053;53.100;6.078;2023-02-15T11:37:06;58.25;;;36.15;;
52043;SDS011;38053;53.100;6.078;2023-02-15T11:39:37;68.13;;;39.47;;
52043;SDS011;38053;53.100;6.078;2023-02-15T11:42:11;61.40;;;37.30;;
52043;SDS011;38053;53.100;6.078;2023-02-15T11:44:44;65.22;;;40.15;;
52043;SDS011;38053;53.100;6.078;2023-02-15T11:47:22;63.95;;;38.55;;
52043;SDS011;38053;53.100;6.078;2023-02-15T11:49:48;62.40;;;36.75;;
52043;SDS011;38053;53.100;6.078;2023-02-15T11:52:14;52.42;;;35.08;;
52043;SDS011;38053;53.100;6.078;2023-02-15T11:54:43;63.03;;;37.55;;
52043;SDS011;38053;53.100;6.078;2023-02-15T11:57:17;55.40;;;36.17;;
52043;SDS011;38053;53.100;6.078;2023-02-15T12:03:05;56.75;;;34.17;;
52043;SDS011;38053;53.100;6.078;2023-02-15T12:06:12;54.97;;;34.88;;
52043;SDS011;38053;53.100;6.078;2023-02-15T12:08:43;53.95;;;34.13;;
52043;SDS011;38053;53.100;6.078;2023-02-15T12:11:17;52.38;;;33.40;;
52043;SDS011;38053;53.100;6.078;2023-02-15T12:13:57;48.03;;;32.50;;
52043;SDS011;38053;53.100;6.078;2023-02-15T12:16:23;54.20;;;33.63;;
52043;SDS011;38053;53.100;6.078;2023-02-15T12:18:50;56.22;;;34.00;;
52043;SDS011;38053;53.100;6.078;2023-02-15T12:21:27;51.10;;;33.33;;
52043;SDS011;38053;53.100;6.078;2023-02-15T12:24:18;57.13;;;31.63;;
52043;SDS011;38053;53.100;6.078;2023-02-15T12:26:58;56.85;;;31.77;;
52043;SDS011;38053;53.100;6.078;2023-02-15T12:29:29;49.45;;;29.52;;
52043;SDS011;38053;53.100;6.078;2023-02-15T12:32:00;55.63;;;32.05;;
52043;SDS011;38053;53.100;6.078;2023-02-15T12:34:35;48.17;;;29.73;;
52043;SDS011;38053;53.100;6.078;2023-02-15T12:37:15;50.97;;;30.58;;
52043;SDS011;38053;53.100;6.078;2023-02-15T12:39:58;50.85;;;31.25;;
52043;SDS011;38053;53.100;6.078;2023-02-15T12:42:44;45.47;;;29.50;;
52043;SDS011;38053;53.100;6.078;2023-02-15T12:45:21;45.58;;;30.83;;
52043;SDS011;38053;53.100;6.078;2023-02-15T12:50:41;48.38;;;29.02;;
52043;SDS011;38053;53.100;6.078;2023-02-15T12:53:18;45.22;;;28.75;;
52043;SDS011;38053;53.100;6.078;2023-02-15T12:55:49;47.60;;;28.15;;
52043;SDS011;38053;53.100;6.078;2023-02-15T12:58:23;45.28;;;29.17;;
52043;SDS011;38053;53.100;6.078;2023-02-15T13:01:08;49.95;;;30.90;;
52043;SDS011;38053;53.100;6.078;2023-02-15T13:03:59;52.03;;;29.83;;
52043;SDS011;38053;53.100;6.078;2023-02-15T13:06:30;47.53;;;30.52;;
52043;SDS011;38053;53.100;6.078;2023-02-15T13:09:16;52.45;;;32.72;;
52043;SDS011;38053;53.100;6.078;2023-02-15T13:11:45;54.83;;;32.47;;
52043;SDS011;38053;53.100;6.078;2023-02-15T13:16:40;57.58;;;32.95;;
52043;SDS011;38053;53.100;6.078;2023-02-15T13:19:13;51.70;;;32.75;;
52043;SDS011;38053;53.100;6.078;2023-02-15T13:21:44;54.67;;;31.55;;
52043;SDS011;38053;53.100;6.078;2023-02-15T13:24:17;60.03;;;34.20;;
52043;SDS011;38053;53.100;6.078;2023-02-15T13:27:02;53.25;;;32.88;;
52043;SDS011;38053;53.100;6.078;2023-02-15T13:29:37;55.50;;;32.70;;
52043;SDS011;38053;53.100;6.078;2023-02-15T13:32:11;53.78;;;34.15;;
52043;SDS011;38053;53.100;6.078;2023-02-15T13:34:47;51.67;;;32.97;;
52043;SDS011;38053;53.100;6.078;2023-02-15T13:40:02;51.53;;;33.28;;
52043;SDS011;38053;53.100;6.078;2023-02-15T13:48:47;57.83;;;33.45;;
52043;SDS011;38053;53.100;6.078;2023-02-15T13:54:46;47.45;;;31.77;;
52043;SDS011;38053;53.100;6.078;2023-02-15T14:00:00;49.83;;;31.40;;
52043;SDS011;38053;53.100;6.078;2023-02-15T14:14:27;50.95;;;31.00;;
52043;SDS011;38053;53.100;6.078;2023-02-15T14:19:57;48.22;;;31.02;;
52043;SDS011;38053;53.100;6.078;2023-02-15T14:28:19;47.47;;;31.30;;
52043;SDS011;38053;53.100;6.078;2023-02-15T14:30:59;49.95;;;31.27;;
52043;SDS011;38053;53.100;6.078;2023-02-15T14:33:35;51.15;;;32.30;;
52043;SDS011;38053;53.100;6.078;2023-02-15T14:36:05;53.13;;;31.88;;
52043;SDS011;38053;53.100;6.078;2023-02-15T14:44:10;47.40;;;31.05;;
52043;SDS011;38053;53.100;6.078;2023-02-15T14:49:16;49.80;;;30.13;;
52043;SDS011;38053;53.100;6.078;2023-02-15T14:57:21;47.00;;;29.92;;
52043;SDS011;38053;53.100;6.078;2023-02-15T15:09:42;49.60;;;31.88;;
52043;SDS011;38053;53.100;6.078;2023-02-15T15:14:46;54.00;;;31.20;;
52043;SDS011;38053;53.100;6.078;2023-02-15T15:17:13;48.85;;;29.67;;
52043;SDS011;38053;53.100;6.078;2023-02-15T15:22:28;48.72;;;32.30;;
52043;SDS011;38053;53.100;6.078;2023-02-15T15:40:47;52.95;;;32.83;;
52043;SDS011;38053;53.100;6.078;2023-02-15T15:43:31;56.45;;;33.28;;
52043;SDS011;38053;53.100;6.078;2023-02-15T15:48:41;53.05;;;33.20;;
52043;SDS011;38053;53.100;6.078;2023-02-15T15:51:11;51.28;;;30.58;;
52043;SDS011;38053;53.100;6.078;2023-02-15T15:53:48;52.85;;;31.27;;
52043;SDS011;38053;53.100;6.078;2023-02-15T15:56:22;55.75;;;33.75;;
52043;SDS011;38053;53.100;6.078;2023-02-15T15:58:57;49.47;;;30.83;;
52043;SDS011;38053;53.100;6.078;2023-02-15T16:01:29;54.30;;;32.35;;
52043;SDS011;38053;53.100;6.078;2023-02-15T16:04:00;49.67;;;31.13;;
52043;SDS011;38053;53.100;6.078;2023-02-15T16:06:26;54.20;;;32.53;;
52043;SDS011;38053;53.100;6.078;2023-02-15T16:08:58;57.05;;;31.35;;
52043;SDS011;38053;53.100;6.078;2023-02-15T16:11:55;50.80;;;31.00;;
52043;SDS011;38053;53.100;6.078;2023-02-15T16:16:57;57.38;;;34.30;;
52043;SDS011;38053;53.100;6.078;2023-02-15T16:19:43;50.38;;;32.33;;
52043;SDS011;38053;53.100;6.078;2023-02-15T16:22:18;58.88;;;32.35;;
52043;SDS011;38053;53.100;6.078;2023-02-15T16:27:40;58.47;;;31.75;;
52043;SDS011;38053;53.100;6.078;2023-02-15T16:33:04;54.53;;;33.55;;
52043;SDS011;38053;53.100;6.078;2023-02-15T16:35:30;59.78;;;33.00;;
52043;SDS011;38053;53.100;6.078;2023-02-15T16:37:56;61.33;;;35.72;;
52043;SDS011;38053;53.100;6.078;2023-02-15T16:42:51;56.28;;;34.08;;
52043;SDS011;38053;53.100;6.078;2023-02-15T16:45:20;57.75;;;33.95;;
52043;SDS011;38053;53.100;6.078;2023-02-15T16:47:49;58.65;;;33.65;;
52043;SDS011;38053;53.100;6.078;2023-02-15T16:50:20;57.92;;;35.30;;
52043;SDS011;38053;53.100;6.078;2023-02-15T16:52:49;55.63;;;35.10;;
52043;SDS011;38053;53.100;6.078;2023-02-15T16:55:26;56.67;;;34.65;;
52043;SDS011;38053;53.100;6.078;2023-02-15T16:57:55;63.70;;;35.47;;
52043;SDS011;38053;53.100;6.078;2023-02-15T17:00:26;58.78;;;35.40;;
52043;SDS011;38053;53.100;6.078;2023-02-15T17:05:30;62.20;;;38.20;;
52043;SDS011;38053;53.100;6.078;2023-02-15T17:08:06;66.50;;;39.72;;
52043;SDS011;38053;53.100;6.078;2023-02-15T17:11:03;63.25;;;37.53;;
52043;SDS011;38053;53.100;6.078;2023-02-15T17:13:32;67.65;;;39.42;;
52043;SDS011;38053;53.100;6.078;2023-02-15T17:18:24;71.38;;;39.85;;
52043;SDS011;38053;53.100;6.078;2023-02-15T17:20:57;68.43;;;42.60;;
52043;SDS011;38053;53.100;6.078;2023-02-15T17:26:00;70.68;;;41.53;;
52043;SDS011;38053;53.100;6.078;2023-02-15T17:28:40;76.40;;;41.50;;
52043;SDS011;38053;53.100;6.078;2023-02-15T17:31:12;66.07;;;42.72;;
52043;SDS011;38053;53.100;6.078;2023-02-15T17:33:39;71.60;;;42.42;;
52043;SDS011;38053;53.100;6.078;2023-02-15T17:36:18;80.85;;;44.42;;
52043;SDS011;38053;53.100;6.078;2023-02-15T17:41:34;72.05;;;42.78;;
52043;SDS011;38053;53.100;6.078;2023-02-15T17:44:02;82.97;;;46.30;;
52043;SDS011;38053;53.100;6.078;2023-02-15T17:46:29;76.90;;;45.08;;
52043;SDS011;38053;53.100;6.078;2023-02-15T17:49:00;74.30;;;45.58;;
52043;SDS011;38053;53.100;6.078;2023-02-15T17:51:26;73.25;;;46.08;;
52043;SDS011;38053;53.100;6.078;2023-02-15T17:53:52;76.38;;;47.00;;
52043;SDS011;38053;53.100;6.078;2023-02-15T17:56:37;76.70;;;44.00;;
52043;SDS011;38053;53.100;6.078;2023-02-15T17:59:04;68.90;;;42.97;;
52043;SDS011;38053;53.100;6.078;2023-02-15T18:01:33;74.07;;;43.70;;
52043;SDS011;38053;53.100;6.078;2023-02-15T18:04:20;79.28;;;46.47;;
52043;SDS011;38053;53.100;6.078;2023-02-15T18:07:08;81.15;;;44.92;;
52043;SDS011;38053;53.100;6.078;2023-02-15T18:10:01;81.28;;;46.95;;
52043;SDS011;38053;53.100;6.078;2023-02-15T18:12:46;71.65;;;44.53;;
52043;SDS011;38053;53.100;6.078;2023-02-15T18:15:12;77.68;;;46.22;;
52043;SDS011;38053;53.100;6.078;2023-02-15T18:17:44;85.75;;;47.67;;
52043;SDS011;38053;53.100;6.078;2023-02-15T18:22:45;79.20;;;45.50;;
52043;SDS011;38053;53.100;6.078;2023-02-15T18:25:12;86.28;;;45.15;;